createdAt,value
2022-12-04T00:07:43.943Z,2.2
2022-12-04T00:08:52.779Z,2.2
2022-12-04T00:10:01.843Z,2.1
2022-12-04T00:14:19.699Z,2
2022-12-04T00:15:43.630Z,2.1
2022-12-04T00:16:53.794Z,2.1
2022-12-04T00:21:10.030Z,2.2
2022-12-04T00:22:40.518Z,2.2
2022-12-04T00:28:19.344Z,2.2
2022-12-04T00:29:27.711Z,2.2
2022-12-04T00:30:35.458Z,2.2
2022-12-04T00:31:45.970Z,2.2
2022-12-04T00:32:53.870Z,2.2
2022-12-04T00:34:07.882Z,2.3
2022-12-04T00:35:14.235Z,2.3
2022-12-04T00:36:22.906Z,2.3
2022-12-04T00:37:30.180Z,2.2
2022-12-04T00:38:37.982Z,2.1
2022-12-04T00:39:46.406Z,2.2
2022-12-04T00:40:54.195Z,2.2
2022-12-04T00:42:02.492Z,2.1
2022-12-04T00:43:10.682Z,2.2
2022-12-04T00:44:19.768Z,2.2
2022-12-04T00:45:28.783Z,2.1
2022-12-04T00:46:38.547Z,2.1
2022-12-04T00:47:46.366Z,2.2
2022-12-04T00:48:55.429Z,2.2
2022-12-04T00:50:04.418Z,2.2
2022-12-04T00:51:12.539Z,2.2
2022-12-04T00:52:20.179Z,2.2
2022-12-04T00:53:30.114Z,2.2
2022-12-04T00:54:38.421Z,2.1
2022-12-04T00:55:48.746Z,2.2
2022-12-04T00:56:56.253Z,2.1
2022-12-04T00:58:05.165Z,2.1
2022-12-04T00:59:12.591Z,2.1
2022-12-04T01:00:20.943Z,2.1
2022-12-04T01:01:29.575Z,2.1
2022-12-04T01:02:39.100Z,2.1
2022-12-04T01:03:46.661Z,2.1
2022-12-04T01:04:55.711Z,2.1
2022-12-04T01:06:04.238Z,2.1
2022-12-04T01:07:12.950Z,2
2022-12-04T01:08:22.185Z,2.1
2022-12-04T01:09:31.194Z,1.9
2022-12-04T01:10:43.491Z,1.9
2022-12-04T01:11:55.360Z,1.8
2022-12-04T01:13:04.218Z,1.8
2022-12-04T01:14:11.335Z,1.9
2022-12-04T01:15:19.311Z,1.9
2022-12-04T01:16:27.973Z,2
2022-12-04T01:17:36.468Z,2
2022-12-04T01:18:44.578Z,2
2022-12-04T01:19:53.241Z,2
2022-12-04T01:21:01.874Z,2
2022-12-04T01:22:10.515Z,2
2022-12-04T01:23:19.226Z,1.9
2022-12-04T01:24:38.426Z,2
2022-12-04T01:25:47.398Z,1.9
2022-12-04T01:26:58.858Z,1.9
2022-12-04T01:28:06.295Z,1.8
2022-12-04T01:29:14.091Z,1.8
2022-12-04T01:30:21.613Z,1.7
2022-12-04T01:31:30.092Z,1.7
2022-12-04T01:32:38.295Z,1.7
2022-12-04T01:33:45.782Z,1.7
2022-12-04T01:34:54.619Z,1.8
2022-12-04T01:36:02.974Z,1.7
2022-12-04T01:37:11.489Z,1.7
2022-12-04T01:38:20.189Z,1.8
2022-12-04T01:39:27.906Z,1.8
2022-12-04T01:40:35.590Z,1.8
2022-12-04T01:41:44.786Z,1.8
2022-12-04T01:42:54.177Z,1.8
2022-12-04T01:44:26.965Z,1.8
2022-12-04T01:45:35.172Z,1.7
2022-12-04T01:46:47.577Z,1.7
2022-12-04T01:47:56.414Z,1.7
2022-12-04T01:49:04.358Z,1.7
2022-12-04T01:50:12.021Z,1.6
2022-12-04T01:51:20.753Z,1.6
2022-12-04T01:52:32.049Z,1.6
2022-12-04T01:53:41.075Z,1.7
2022-12-04T01:55:09.948Z,1.7
2022-12-04T01:56:19.503Z,1.6
2022-12-04T01:57:27.197Z,1.7
2022-12-04T01:58:35.362Z,1.6
2022-12-04T01:59:47.462Z,1.5
2022-12-04T02:01:02.534Z,1.5
2022-12-04T02:02:10.787Z,1.6
2022-12-04T02:03:19.824Z,1.6
2022-12-04T02:04:29.698Z,1.5
2022-12-04T02:05:38.054Z,1.6
2022-12-04T02:06:47.242Z,1.5
2022-12-04T02:07:56.966Z,1.5
2022-12-04T02:09:30.535Z,1.5
2022-12-04T02:10:39.422Z,1.6
2022-12-04T02:11:49.515Z,1.6
2022-12-04T02:13:04.079Z,1.6
2022-12-04T02:14:51.249Z,1.6
2022-12-04T02:16:06.311Z,1.4
2022-12-04T02:18:05.889Z,1.4
2022-12-04T02:19:19.718Z,1.4
2022-12-04T02:20:32.937Z,1.3
2022-12-04T02:21:51.318Z,1.3
2022-12-04T02:22:58.842Z,1.4
2022-12-04T02:24:17.194Z,1.3
2022-12-04T02:25:29.473Z,1.5
2022-12-04T02:26:40.224Z,1.4
2022-12-04T02:27:59.112Z,1.4
2022-12-04T02:29:55.770Z,1.4
2022-12-04T02:31:06.721Z,1.5
2022-12-04T02:32:17.213Z,1.4
2022-12-04T02:33:33.332Z,1.4
2022-12-04T02:34:43.219Z,1.4
2022-12-04T02:35:55.925Z,1.4
2022-12-04T02:37:09.841Z,1.4
2022-12-04T02:38:20.234Z,1.3
2022-12-04T02:39:27.674Z,1.2
2022-12-04T02:40:37.513Z,1.2
2022-12-04T02:41:52.717Z,1.2
2022-12-04T02:43:03.117Z,1.2
2022-12-04T02:44:19.459Z,1.3
2022-12-04T02:45:30.151Z,1.3
2022-12-04T02:46:37.501Z,1.3
2022-12-04T02:47:48.736Z,1.4
2022-12-04T02:49:00.452Z,1.4
2022-12-04T02:50:12.170Z,1.4
2022-12-04T02:51:32.341Z,1.3
2022-12-04T02:52:59.789Z,1.3
2022-12-04T02:54:42.205Z,1.3
2022-12-04T02:56:04.845Z,1.3
2022-12-04T02:57:23.584Z,1.4
2022-12-04T02:58:34.526Z,1.4
2022-12-04T02:59:56.193Z,1.4
2022-12-04T03:01:10.166Z,1.4
2022-12-04T03:02:29.785Z,1.4
2022-12-04T03:03:46.586Z,1.4
2022-12-04T03:05:11.409Z,1.4
2022-12-04T03:06:21.560Z,1.3
2022-12-04T03:07:30.938Z,1.4
2022-12-04T03:09:15.550Z,1.4
2022-12-04T03:10:58.246Z,1.4
2022-12-04T03:12:18.950Z,1.4
2022-12-04T03:13:42.721Z,1.5
2022-12-04T03:15:17.102Z,1.4
2022-12-04T03:16:31.655Z,1.3
2022-12-04T03:18:10.770Z,1.3
2022-12-04T03:19:33.352Z,1.3
2022-12-04T03:20:58.614Z,1.3
2022-12-04T03:22:15.702Z,1.2
2022-12-04T03:23:42.853Z,1.2
2022-12-04T03:24:57.311Z,1.3
2022-12-04T03:26:18.138Z,1.4
2022-12-04T03:27:47.354Z,1.3
2022-12-04T03:29:09.485Z,1.3
2022-12-04T03:30:38.118Z,1.3
2022-12-04T03:32:14.065Z,1.3
2022-12-04T03:33:36.880Z,1.4
2022-12-04T03:34:46.337Z,1.5
2022-12-04T03:36:02.577Z,1.5
2022-12-04T03:37:14.933Z,1.5
2022-12-04T03:38:23.833Z,1.4
2022-12-04T03:39:39.874Z,1.4
2022-12-04T03:40:53.804Z,1.3
2022-12-04T03:42:02.337Z,1.3
2022-12-04T03:43:13.248Z,1.3
2022-12-04T03:44:22.826Z,1.3
2022-12-04T03:45:33.821Z,1.4
2022-12-04T03:46:48.764Z,1.4
2022-12-04T03:47:58.665Z,1.4
2022-12-04T03:49:13.537Z,1.3
2022-12-04T03:50:31.521Z,1.3
2022-12-04T03:51:39.081Z,1.4
2022-12-04T03:52:51.976Z,1.4
2022-12-04T03:54:09.725Z,1.3
2022-12-04T03:55:18.596Z,1.3
2022-12-04T03:56:31.944Z,1.4
2022-12-04T03:57:45.361Z,1.4
2022-12-04T03:58:53.441Z,1.3
2022-12-04T04:00:02.026Z,1.4
2022-12-04T04:01:10.117Z,1.4
2022-12-04T04:02:17.590Z,1.3
2022-12-04T04:03:25.849Z,1.3
2022-12-04T04:04:35.603Z,1.4
2022-12-04T04:05:42.716Z,1.3
2022-12-04T04:06:50.021Z,1.3
2022-12-04T04:08:03.017Z,1.3
2022-12-04T04:09:17.725Z,1.3
2022-12-04T04:10:26.276Z,1.3
2022-12-04T04:12:03.975Z,1.3
2022-12-04T04:13:15.580Z,1.3
2022-12-04T04:14:30.355Z,1.3
2022-12-04T04:15:49.167Z,1.3
2022-12-04T04:17:02.781Z,1.4
2022-12-04T04:18:16.236Z,1.3
2022-12-04T04:19:29.055Z,1.4
2022-12-04T04:20:42.731Z,1.4
2022-12-04T04:21:59.420Z,1.4
2022-12-04T04:23:13.520Z,1.4
2022-12-04T04:24:27.541Z,1.4
2022-12-04T04:25:42.657Z,1.4
2022-12-04T04:26:49.948Z,1.4
2022-12-04T04:27:59.403Z,1.5
2022-12-04T04:29:06.835Z,1.5
2022-12-04T04:30:16.109Z,1.5
2022-12-04T04:34:51.474Z,1.5
2022-12-04T04:36:06.692Z,1.5
2022-12-04T04:37:23.196Z,1.6
2022-12-04T04:38:42.177Z,1.6
2022-12-04T04:39:49.900Z,1.6
2022-12-04T04:41:06.621Z,1.6
2022-12-04T04:42:14.377Z,1.5
2022-12-04T04:43:23.865Z,1.6
2022-12-04T04:44:36.797Z,1.6
2022-12-04T04:45:49.348Z,1.6
2022-12-04T04:47:03.196Z,1.6
2022-12-04T04:48:12.168Z,1.6
2022-12-04T04:49:26.409Z,1.7
2022-12-04T04:50:38.650Z,1.7
2022-12-04T04:51:46.241Z,1.7
2022-12-04T04:52:54.461Z,1.6
2022-12-04T04:54:02.574Z,1.7
2022-12-04T04:55:11.997Z,1.6
2022-12-04T04:56:20.869Z,1.6
2022-12-04T04:57:30.172Z,1.6
2022-12-04T04:58:41.217Z,1.5
2022-12-04T04:59:49.165Z,1.5
2022-12-04T05:00:57.736Z,1.5
2022-12-04T05:02:06.630Z,1.5
2022-12-04T05:03:14.092Z,1.4
2022-12-04T05:04:23.543Z,1.5
2022-12-04T05:05:31.553Z,1.5
2022-12-04T05:06:41.525Z,1.5
2022-12-04T05:07:48.976Z,1.5
2022-12-04T05:08:57.145Z,1.5
2022-12-04T05:10:05.252Z,1.5
2022-12-04T05:11:13.649Z,1.6
2022-12-04T05:12:22.917Z,1.6
2022-12-04T05:13:32.704Z,1.6
2022-12-04T05:15:27.044Z,1.6
2022-12-04T05:16:34.675Z,1.5
2022-12-04T05:17:43.686Z,1.6
2022-12-04T05:18:59.161Z,1.5
2022-12-04T05:20:12.797Z,1.5
2022-12-04T05:21:21.369Z,1.6
2022-12-04T05:22:30.288Z,1.6
2022-12-04T05:23:39.345Z,1.7
2022-12-04T05:24:48.704Z,1.6
2022-12-04T05:25:58.220Z,1.6
2022-12-04T05:27:06.812Z,1.5
2022-12-04T05:28:16.540Z,1.6
2022-12-04T05:29:32.833Z,1.6
2022-12-04T05:30:42.172Z,1.5
2022-12-04T05:31:53.373Z,1.6
2022-12-04T05:33:01.630Z,1.6
2022-12-04T05:34:09.761Z,1.6
2022-12-04T05:35:17.885Z,1.6
2022-12-04T05:36:27.139Z,1.6
2022-12-04T05:37:34.933Z,1.6
2022-12-04T05:38:43.917Z,1.7
2022-12-04T05:39:53.948Z,1.6
2022-12-04T05:41:00.953Z,1.6
2022-12-04T05:42:10.037Z,1.7
2022-12-04T05:43:17.306Z,1.7
2022-12-04T05:44:26.287Z,1.7
2022-12-04T05:45:36.336Z,1.7
2022-12-04T05:47:27.528Z,1.7
2022-12-04T05:48:35.925Z,1.6
2022-12-04T05:49:43.440Z,1.6
2022-12-04T05:50:51.385Z,1.6
2022-12-04T05:51:59.753Z,1.6
2022-12-04T05:53:07.601Z,1.6
2022-12-04T05:54:15.992Z,1.7
2022-12-04T05:55:23.688Z,1.6
2022-12-04T05:56:31.488Z,1.6
2022-12-04T05:57:39.718Z,1.6
2022-12-04T05:58:48.785Z,1.6
2022-12-04T06:00:03.464Z,1.5
2022-12-04T06:01:13.204Z,1.5
2022-12-04T06:02:35.935Z,1.6
2022-12-04T06:03:44.365Z,1.5
2022-12-04T06:04:52.150Z,1.5
2022-12-04T06:06:01.737Z,1.6
2022-12-04T06:07:10.482Z,1.6
2022-12-04T06:08:20.088Z,1.7
2022-12-04T06:09:43.141Z,1.7
2022-12-04T06:10:50.976Z,1.8
2022-12-04T06:11:58.651Z,1.8
2022-12-04T06:13:07.396Z,1.8
2022-12-04T06:14:18.389Z,1.7
2022-12-04T06:15:29.057Z,1.7
2022-12-04T06:16:37.096Z,1.6
2022-12-04T06:17:45.434Z,1.5
2022-12-04T06:18:54.781Z,1.6
2022-12-04T06:20:09.703Z,1.6
2022-12-04T06:21:14.568Z,1.5
2022-12-04T06:22:23.244Z,1.4
2022-12-04T06:23:30.649Z,1.4
2022-12-04T06:24:39.808Z,1.4
2022-12-04T06:25:47.185Z,1.5
2022-12-04T06:28:04.824Z,1.5
2022-12-04T06:29:14.221Z,1.5
2022-12-04T06:30:21.961Z,1.5
2022-12-04T06:31:29.957Z,1.5
2022-12-04T06:32:38.216Z,1.6
2022-12-04T06:33:46.080Z,1.6
2022-12-04T06:34:55.512Z,1.6
2022-12-04T06:36:03.568Z,1.6
2022-12-04T06:37:12.242Z,1.7
2022-12-04T06:38:20.193Z,1.7
2022-12-04T06:39:29.013Z,1.7
2022-12-04T06:40:37.613Z,1.7
2022-12-04T06:41:46.052Z,1.7
2022-12-04T06:42:53.720Z,1.6
2022-12-04T06:44:01.786Z,1.7
2022-12-04T06:45:12.473Z,1.6
2022-12-04T06:46:20.852Z,1.7
2022-12-04T06:47:30.737Z,1.7
2022-12-04T06:48:38.448Z,1.7
2022-12-04T06:50:02.397Z,1.7
2022-12-04T06:51:11.474Z,1.7
2022-12-04T06:52:18.999Z,1.7
2022-12-04T06:53:29.324Z,1.6
2022-12-04T06:54:37.864Z,1.5
2022-12-04T06:55:46.742Z,1.5
2022-12-04T06:58:15.929Z,1.5
2022-12-04T06:59:25.173Z,1.6
2022-12-04T07:00:40.586Z,1.6
2022-12-04T07:05:00.848Z,1.7
2022-12-04T07:07:16.132Z,1.7
2022-12-04T07:08:24.807Z,1.5
2022-12-04T07:10:34.504Z,1.5
2022-12-04T07:11:42.509Z,1.5
2022-12-04T07:16:11.767Z,1.5
2022-12-04T07:20:41.861Z,1.5
2022-12-04T07:22:04.349Z,1.5
2022-12-04T07:23:37.677Z,1.5
2022-12-04T07:24:48.151Z,1.5
2022-12-04T07:25:56.506Z,1.5
2022-12-04T07:27:09.832Z,1.6
2022-12-04T07:28:18.776Z,1.6
2022-12-04T07:29:26.940Z,1.7
2022-12-04T07:30:39.312Z,1.7
2022-12-04T07:32:01.570Z,1.7
2022-12-04T07:33:11.283Z,1.6
2022-12-04T07:34:18.905Z,1.7
2022-12-04T07:35:26.887Z,1.7
2022-12-04T07:36:44.717Z,1.8
2022-12-04T07:38:14.375Z,1.8
2022-12-04T07:39:39.566Z,1.9
2022-12-04T07:41:01.549Z,2
2022-12-04T07:42:12.531Z,2
2022-12-04T07:43:21.449Z,2
2022-12-04T07:44:31.389Z,2
2022-12-04T07:45:48.517Z,2
2022-12-04T07:46:57.936Z,1.8
2022-12-04T07:48:08.500Z,1.9
2022-12-04T07:49:17.175Z,2
2022-12-04T07:50:27.869Z,2
2022-12-04T07:51:35.808Z,2
2022-12-04T07:52:53.192Z,1.9
2022-12-04T07:54:09.524Z,1.9
2022-12-04T07:55:23.331Z,2
2022-12-04T07:58:22.846Z,2.1
2022-12-04T08:03:07.624Z,2.1
2022-12-04T08:07:36.304Z,2.1
2022-12-04T08:15:36.224Z,2.2
2022-12-04T08:20:09.763Z,2.5
2022-12-04T08:22:08.656Z,2.5
2022-12-04T08:29:10.167Z,2.4
2022-12-04T08:30:19.148Z,2.4
2022-12-04T08:35:58.442Z,2.4
2022-12-04T08:43:10.340Z,2.4
2022-12-04T08:48:28.159Z,2.4
2022-12-04T08:53:00.992Z,2.4
2022-12-04T09:25:21.460Z,2.4
2022-12-04T09:29:55.883Z,2.4
2022-12-04T09:31:59.264Z,2.4
2022-12-04T09:36:36.589Z,3
2022-12-04T10:04:17.396Z,3.3
2022-12-04T10:06:16.649Z,3.3
2022-12-04T10:26:18.689Z,3.4
2022-12-04T10:30:52.557Z,3.4
2022-12-04T10:38:46.984Z,3.4
2022-12-04T10:40:06.064Z,3.7
2022-12-04T10:46:03.765Z,3.7
2022-12-04T10:50:37.473Z,3.7
2022-12-04T10:52:44.428Z,3.7
2022-12-04T10:57:20.230Z,3.6
2022-12-04T11:00:38.053Z,3.3
2022-12-04T11:01:47.376Z,3.3
2022-12-04T11:02:57.741Z,3.1
2022-12-04T11:04:26.281Z,3.1
2022-12-04T11:05:40.349Z,3.4
2022-12-04T11:07:27.203Z,3.4
2022-12-04T11:08:38.208Z,3.5
2022-12-04T11:13:15.422Z,3.5
2022-12-04T11:17:57.865Z,3.6
2022-12-04T11:19:14.582Z,3.6
2022-12-04T11:23:27.676Z,3.5
2022-12-04T11:26:06.063Z,3.5
2022-12-04T11:32:08.704Z,3.6
2022-12-04T11:36:48.428Z,3.6
2022-12-04T11:37:57.697Z,3.7
2022-12-04T11:44:03.160Z,3.7
2022-12-04T11:48:37.388Z,3.7
2022-12-04T11:53:13.620Z,3.7
2022-12-04T11:54:36.213Z,4
2022-12-04T11:56:01.081Z,3.9
2022-12-04T11:57:08.596Z,4
2022-12-04T11:58:25.806Z,3.9
2022-12-04T11:59:45.708Z,4
2022-12-04T12:01:02.553Z,4.1
2022-12-04T12:02:21.107Z,4.1
2022-12-04T12:04:00.263Z,4.1
2022-12-04T12:05:15.768Z,4.1
2022-12-04T12:06:55.956Z,4.1
2022-12-04T12:08:12.966Z,4.1
2022-12-04T12:09:22.781Z,4.2
2022-12-04T12:13:39.128Z,4.2
2022-12-04T12:14:54.151Z,4.1
2022-12-04T12:16:18.827Z,4.1
2022-12-04T12:17:32.330Z,4.1
2022-12-04T12:25:53.987Z,4.1
2022-12-04T12:30:29.448Z,3.8
2022-12-04T12:31:51.131Z,3.8
2022-12-04T12:33:05.619Z,3.8
2022-12-04T12:40:58.526Z,3.8
2022-12-04T12:42:11.072Z,3.8
2022-12-04T12:43:22.874Z,3.7
2022-12-04T12:48:29.380Z,3.7
2022-12-04T12:56:15.127Z,3.8
2022-12-04T12:58:32.555Z,3.8
2022-12-04T13:03:04.906Z,3.7
2022-12-04T13:39:37.371Z,3.7
2022-12-04T13:40:53.458Z,3.7
2022-12-04T13:49:17.550Z,3.4
2022-12-04T13:53:45.701Z,3.4
2022-12-04T13:58:31.678Z,3.4
2022-12-04T14:03:04.475Z,3.4
2022-12-04T14:04:31.216Z,3.4
2022-12-04T14:09:18.952Z,3.5
2022-12-04T14:10:27.063Z,3.4
2022-12-04T14:18:19.892Z,3.5
2022-12-04T14:29:28.274Z,3.4
2022-12-04T15:01:46.826Z,3.4
2022-12-04T15:06:22.423Z,3.2
2022-12-04T16:12:31.303Z,3.3
2022-12-04T16:17:05.747Z,3.3
2022-12-04T18:33:28.314Z,3.6
2022-12-04T18:34:35.929Z,3.6
2022-12-04T18:35:43.773Z,3.5
2022-12-04T18:37:09.749Z,3.5
2022-12-04T18:38:18.545Z,3.6
2022-12-04T18:42:38.865Z,3.6
2022-12-04T18:43:46.762Z,3.5
2022-12-04T18:44:55.280Z,3.5
2022-12-04T18:46:06.987Z,3.4
2022-12-04T18:47:09.817Z,3.5
2022-12-04T18:48:21.073Z,3.5
2022-12-04T18:49:30.253Z,3.5
2022-12-04T18:50:37.484Z,3.4
2022-12-04T18:52:17.996Z,3.4
2022-12-04T18:53:27.210Z,3.5
2022-12-04T18:54:34.868Z,3.5
2022-12-04T18:58:35.036Z,3.6
2022-12-04T18:59:42.288Z,3.6
2022-12-04T19:03:43.936Z,3.6
2022-12-04T19:04:52.232Z,3.7
2022-12-04T19:05:59.578Z,3.7
2022-12-04T19:07:08.362Z,3.6
2022-12-04T19:08:15.892Z,3.6
2022-12-04T19:12:14.196Z,3.5
2022-12-04T19:13:21.932Z,3.5
2022-12-04T19:17:23.060Z,3.4
2022-12-04T19:18:30.472Z,3.2
2022-12-04T19:19:37.808Z,3.2
2022-12-04T19:20:45.497Z,3.2
2022-12-04T19:21:53.368Z,3.1
2022-12-04T19:23:01.956Z,3.2
2022-12-04T19:24:09.445Z,3.2
2022-12-04T19:25:16.680Z,3.2
2022-12-04T19:26:23.853Z,3.2
2022-12-04T19:27:32.062Z,3.2
2022-12-04T19:28:40.593Z,3.2
2022-12-04T19:29:49.280Z,3.1
2022-12-04T19:30:56.532Z,3
2022-12-04T19:32:04.258Z,3
2022-12-04T19:33:11.390Z,3
2022-12-04T19:34:19.529Z,3
2022-12-04T19:35:28.312Z,3
2022-12-04T19:37:36.954Z,3
2022-12-04T19:38:40.988Z,3
2022-12-04T19:39:47.937Z,3
2022-12-04T19:43:48.729Z,2.9
2022-12-04T19:45:28.519Z,2.9
2022-12-04T19:46:38.212Z,2.8
2022-12-04T19:50:56.853Z,2.9
2022-12-04T19:52:09.805Z,3
2022-12-04T19:55:59.721Z,2.9
2022-12-04T19:57:06.953Z,3
2022-12-04T19:58:14.991Z,2.9
2022-12-04T19:59:22.616Z,2.9
2022-12-04T20:00:57.681Z,2.9
2022-12-04T20:02:05.453Z,2.9
2022-12-04T20:06:14.508Z,2.9
2022-12-04T20:10:56.055Z,3
2022-12-04T20:12:06.069Z,2.8
2022-12-04T20:16:39.244Z,2.9
2022-12-04T20:19:10.597Z,2.9
2022-12-04T20:20:19.304Z,2.8
2022-12-04T20:28:21.887Z,2.7
2022-12-04T20:32:57.472Z,2.7
2022-12-04T20:37:24.527Z,2.7
2022-12-04T20:38:34.079Z,2.7
2022-12-04T20:42:55.976Z,2.7
2022-12-04T20:44:05.149Z,2.8
2022-12-04T20:47:56.696Z,2.7
2022-12-04T20:52:28.647Z,2.6
2022-12-04T20:54:22.820Z,2.6
2022-12-04T20:55:30.388Z,2.6
2022-12-04T20:59:58.585Z,2.5
2022-12-04T21:01:05.895Z,2.6
2022-12-04T21:02:22.542Z,2.6
2022-12-04T21:03:30.717Z,2.7
2022-12-04T21:07:54.416Z,2.5
2022-12-04T21:12:05.216Z,2.5
2022-12-04T21:14:14.771Z,2.5
2022-12-04T21:15:30.256Z,2.4
2022-12-04T21:17:10.651Z,2.4
2022-12-04T21:18:17.903Z,2.4
2022-12-04T21:20:44.818Z,2.4
2022-12-04T21:21:52.761Z,2.6
2022-12-04T21:23:00.143Z,2.6
2022-12-04T21:24:07.084Z,2.6
2022-12-04T21:25:14.827Z,2.6
2022-12-04T21:26:22.287Z,2.5
2022-12-04T21:27:30.994Z,2.4
2022-12-04T21:28:57.376Z,2.4
2022-12-04T21:30:05.579Z,2.5
2022-12-04T21:31:14.155Z,2.4
2022-12-04T21:35:43.643Z,2.3
2022-12-04T21:39:13.040Z,2.4
2022-12-04T21:43:40.843Z,2.3
2022-12-04T21:47:42.919Z,2.3
2022-12-04T21:48:49.869Z,2.3
2022-12-04T21:49:59.028Z,2.3
2022-12-04T21:54:31.440Z,2.5
2022-12-04T21:59:06.575Z,2.5
2022-12-04T22:00:14.011Z,2.4
2022-12-04T22:01:21.560Z,2.5
2022-12-04T22:05:52.751Z,2.5
2022-12-04T22:10:10.933Z,2.5
2022-12-04T22:12:48.884Z,2.5
2022-12-04T22:13:26.474Z,2.5
2022-12-04T22:14:35.498Z,2.4
2022-12-04T22:15:44.051Z,2.4
2022-12-04T22:20:13.647Z,2.3
2022-12-04T22:21:22.030Z,2.3
2022-12-04T22:22:45.278Z,2.4
2022-12-04T22:26:39.658Z,2.4
2022-12-04T22:27:47.394Z,2.5
2022-12-04T22:28:54.838Z,2.5
2022-12-04T22:30:04.278Z,2.6
2022-12-04T22:31:13.075Z,2.6
2022-12-04T22:35:48.854Z,2.6
2022-12-04T22:37:01.870Z,2.5
2022-12-04T22:38:29.530Z,2.5
2022-12-04T22:39:37.167Z,2.6
2022-12-04T22:41:35.864Z,2.6
2022-12-04T22:42:43.000Z,2.7
2022-12-04T22:43:50.220Z,2.7
2022-12-04T22:44:57.346Z,2.7
2022-12-04T22:49:02.974Z,2.7
2022-12-04T22:50:10.980Z,2.6
2022-12-04T22:51:18.055Z,2.5
2022-12-04T22:53:17.727Z,2.5
2022-12-04T22:54:24.914Z,2.6
2022-12-04T22:58:32.991Z,2.6
2022-12-04T22:59:40.198Z,2.4
2022-12-04T23:00:47.438Z,2.3
2022-12-04T23:01:54.722Z,2.4
2022-12-04T23:03:03.086Z,2.4
2022-12-04T23:04:11.318Z,2.5
2022-12-04T23:08:20.904Z,2.5
2022-12-04T23:09:28.323Z,2.4
2022-12-04T23:13:28.618Z,2.4
2022-12-04T23:14:37.256Z,2.3
2022-12-04T23:18:51.167Z,2.3
2022-12-04T23:20:00.112Z,2.2
2022-12-04T23:21:08.440Z,2.3
2022-12-04T23:22:15.859Z,2.3
2022-12-04T23:23:24.139Z,2.3
2022-12-04T23:24:31.633Z,2.4
2022-12-04T23:25:38.719Z,2.3
2022-12-04T23:26:46.639Z,2.3
2022-12-04T23:27:53.476Z,2.3
2022-12-04T23:29:00.708Z,2.3
2022-12-04T23:30:08.820Z,2.3
2022-12-04T23:34:39.601Z,2.4
2022-12-04T23:36:01.966Z,2.4
2022-12-04T23:37:11.787Z,2.4
2022-12-04T23:39:44.066Z,2.4
2022-12-04T23:40:51.188Z,2.2
2022-12-04T23:42:04.819Z,2.3
2022-12-04T23:43:12.953Z,2.1
2022-12-04T23:44:20.345Z,2.1
2022-12-04T23:45:27.657Z,2.1
2022-12-04T23:46:35.669Z,2.2
2022-12-04T23:47:43.204Z,2
2022-12-04T23:52:10.960Z,2
2022-12-04T23:55:46.348Z,2
2022-12-04T23:59:58.958Z,2
